createdAt,value
2023-03-08T00:01:37.995Z,9.60
2023-03-08T00:04:06.640Z,7.80
2023-03-08T00:06:36.234Z,10.10
2023-03-08T00:09:05.254Z,8.30
2023-03-08T00:11:33.863Z,8.60
2023-03-08T00:14:03.588Z,7.00
2023-03-08T00:16:32.134Z,8.20
2023-03-08T00:19:00.672Z,9.10
2023-03-08T00:21:29.275Z,7.60
2023-03-08T00:23:58.004Z,8.00
2023-03-08T00:26:27.171Z,10.00
2023-03-08T00:28:55.888Z,10.70
2023-03-08T00:31:24.721Z,8.00
2023-03-08T00:33:55.204Z,9.30
2023-03-08T00:36:25.047Z,8.50
2023-03-08T00:38:54.380Z,8.80
2023-03-08T00:41:23.700Z,9.40
2023-03-08T00:43:52.260Z,10.50
2023-03-08T00:46:21.024Z,10.10
2023-03-08T00:48:49.741Z,8.30
2023-03-08T00:51:20.668Z,8.60
2023-03-08T00:53:50.268Z,9.10
2023-03-08T00:56:18.902Z,8.50
2023-03-08T00:58:48.119Z,6.50
2023-03-08T01:01:19.616Z,7.70
2023-03-08T01:03:48.342Z,6.80
2023-03-08T01:06:17.071Z,8.40
2023-03-08T01:08:46.077Z,10.30
2023-03-08T01:11:21.535Z,8.30
2023-03-08T01:13:52.710Z,8.40
2023-03-08T01:16:25.103Z,8.60
2023-03-08T01:18:56.145Z,7.70
2023-03-08T01:21:26.325Z,7.30
2023-03-08T01:23:55.402Z,9.30
2023-03-08T01:26:26.347Z,9.00
2023-03-08T01:28:55.889Z,9.20
2023-03-08T01:31:29.923Z,6.60
2023-03-08T01:33:59.384Z,6.40
2023-03-08T01:36:28.560Z,8.70
2023-03-08T01:39:00.154Z,8.80
2023-03-08T01:41:31.927Z,9.90
2023-03-08T01:44:01.752Z,8.10
2023-03-08T01:46:36.242Z,8.20
2023-03-08T01:49:25.806Z,11.00
2023-03-08T01:52:04.512Z,7.40
2023-03-08T01:54:37.687Z,9.40
2023-03-08T01:57:20.648Z,7.00
2023-03-08T01:59:51.454Z,7.50
2023-03-08T02:02:27.880Z,7.90
2023-03-08T02:04:57.497Z,8.30
2023-03-08T02:07:26.084Z,6.70
2023-03-08T02:09:55.189Z,8.00
2023-03-08T02:12:24.267Z,8.10
2023-03-08T02:14:53.624Z,7.60
2023-03-08T02:17:22.964Z,6.30
2023-03-08T02:20:02.550Z,7.50
2023-03-08T02:22:31.510Z,7.10
2023-03-08T02:25:00.201Z,8.30
2023-03-08T02:27:29.203Z,7.90
2023-03-08T02:29:57.821Z,8.10
2023-03-08T02:32:26.650Z,11.90
2023-03-08T02:34:55.573Z,7.10
2023-03-08T02:37:24.324Z,6.50
2023-03-08T02:39:53.024Z,9.90
2023-03-08T02:42:21.718Z,6.10
2023-03-08T02:44:50.809Z,7.50
2023-03-08T02:47:19.613Z,6.70
2023-03-08T02:49:48.349Z,6.40
2023-03-08T02:52:18.063Z,7.60
2023-03-08T02:54:47.304Z,6.50
2023-03-08T02:57:15.944Z,5.30
2023-03-08T02:59:44.603Z,5.60
2023-03-08T03:02:13.284Z,8.10
2023-03-08T03:04:42.062Z,7.50
2023-03-08T03:07:10.805Z,8.60
2023-03-08T03:09:39.642Z,7.00
2023-03-08T03:12:08.773Z,8.30
2023-03-08T03:14:37.811Z,10.20
2023-03-08T03:17:06.612Z,9.90
2023-03-08T03:19:35.325Z,5.90
2023-03-08T03:22:04.277Z,7.90
2023-03-08T03:24:32.893Z,8.30
2023-03-08T03:27:01.576Z,8.50
2023-03-08T03:29:30.636Z,7.00
2023-03-08T03:32:00.462Z,7.30
2023-03-08T03:34:30.334Z,8.80
2023-03-08T03:36:59.464Z,7.00
2023-03-08T03:39:34.224Z,8.30
2023-03-08T03:42:02.834Z,6.70
2023-03-08T03:44:31.475Z,6.70
2023-03-08T03:47:00.287Z,8.10
2023-03-08T03:49:29.818Z,6.90
2023-03-08T03:51:59.144Z,5.40
2023-03-08T03:54:28.221Z,7.50
2023-03-08T03:56:58.678Z,6.80
2023-03-08T03:59:27.891Z,9.50
2023-03-08T04:01:56.706Z,7.60
2023-03-08T04:04:25.264Z,6.30
2023-03-08T04:06:53.984Z,10.10
2023-03-08T04:09:22.607Z,5.50
2023-03-08T04:11:51.752Z,8.40
2023-03-08T04:14:20.526Z,9.60
2023-03-08T04:16:49.197Z,7.50
2023-03-08T04:19:17.755Z,6.40
2023-03-08T04:21:46.424Z,6.60
2023-03-08T04:24:15.575Z,7.30
2023-03-08T04:26:44.727Z,7.70
2023-03-08T04:29:13.343Z,7.30
2023-03-08T04:31:42.244Z,9.40
2023-03-08T04:34:11.963Z,12.20
2023-03-08T04:36:40.675Z,6.80
2023-03-08T04:39:09.445Z,8.20
2023-03-08T04:41:38.631Z,8.80
2023-03-08T04:44:07.980Z,8.00
2023-03-08T04:46:37.224Z,10.00
2023-03-08T04:49:05.942Z,5.20
2023-03-08T04:51:34.665Z,6.20
2023-03-08T04:54:05.259Z,9.50
2023-03-08T04:56:34.303Z,6.60
2023-03-08T04:59:03.052Z,7.80
2023-03-08T05:01:31.963Z,6.80
2023-03-08T05:04:01.162Z,8.60
2023-03-08T05:06:30.602Z,10.20
2023-03-08T05:08:59.388Z,8.20
2023-03-08T05:11:29.076Z,5.60
2023-03-08T05:13:59.566Z,6.50
2023-03-08T05:16:29.192Z,6.50
2023-03-08T05:18:57.903Z,6.90
2023-03-08T05:21:26.562Z,9.20
2023-03-08T05:23:55.674Z,7.10
2023-03-08T05:26:24.986Z,9.40
2023-03-08T05:28:55.686Z,9.60
2023-03-08T05:31:24.457Z,8.10
2023-03-08T05:33:54.224Z,9.80
2023-03-08T05:36:23.493Z,8.20
2023-03-08T05:38:55.671Z,9.10
2023-03-08T05:41:24.782Z,9.40
2023-03-08T05:43:53.323Z,12.10
2023-03-08T05:46:22.161Z,7.80
2023-03-08T05:48:50.892Z,10.00
2023-03-08T05:51:20.416Z,10.90
2023-03-08T05:53:49.057Z,8.10
2023-03-08T05:56:23.311Z,9.80
2023-03-08T05:58:52.817Z,10.30
2023-03-08T06:01:27.613Z,9.00
2023-03-08T06:03:58.250Z,7.60
2023-03-08T06:06:28.167Z,9.30
2023-03-08T06:08:57.264Z,9.80
2023-03-08T06:11:26.374Z,5.30
2023-03-08T06:13:55.914Z,7.50
2023-03-08T06:16:24.590Z,7.70
2023-03-08T06:18:53.636Z,6.60
2023-03-08T06:21:23.388Z,8.80
2023-03-08T06:23:52.336Z,9.40
2023-03-08T06:26:21.212Z,7.30
2023-03-08T06:28:49.975Z,7.60
2023-03-08T06:31:19.904Z,7.10
2023-03-08T06:33:48.755Z,8.10
2023-03-08T06:36:20.103Z,7.30
2023-03-08T06:38:49.693Z,6.90
2023-03-08T06:41:21.318Z,6.30
2023-03-08T06:43:50.505Z,8.50
2023-03-08T06:46:20.905Z,6.90
2023-03-08T06:48:51.236Z,8.10
2023-03-08T06:51:20.910Z,8.50
2023-03-08T06:53:49.555Z,7.30
2023-03-08T06:56:19.375Z,5.90
2023-03-08T06:58:48.066Z,7.80
2023-03-08T07:01:17.488Z,8.00
2023-03-08T07:03:48.394Z,8.70
2023-03-08T07:06:17.023Z,7.80
2023-03-08T07:08:46.238Z,6.60
2023-03-08T07:11:14.881Z,12.40
2023-03-08T07:13:43.657Z,9.50
2023-03-08T07:16:14.166Z,8.30
2023-03-08T07:18:42.988Z,7.80
2023-03-08T07:21:13.630Z,6.50
2023-03-08T07:23:42.399Z,7.40
2023-03-08T07:26:11.605Z,8.40
2023-03-08T07:28:41.163Z,5.90
2023-03-08T07:31:12.783Z,5.80
2023-03-08T07:33:41.538Z,6.50
2023-03-08T07:36:10.514Z,9.00
2023-03-08T07:38:39.889Z,8.10
2023-03-08T07:41:08.642Z,6.10
2023-03-08T07:43:37.326Z,4.50
2023-03-08T07:46:06.055Z,8.30
2023-03-08T07:48:35.292Z,7.60
2023-03-08T07:51:09.885Z,8.90
2023-03-08T07:53:39.053Z,7.50
2023-03-08T07:56:08.803Z,7.00
2023-03-08T07:58:38.187Z,8.40
2023-03-08T08:01:12.277Z,6.40
2023-03-08T08:03:41.383Z,6.90
2023-03-08T08:06:10.714Z,7.10
2023-03-08T08:08:39.544Z,7.60
2023-03-08T08:11:16.757Z,7.20
2023-03-08T08:13:47.204Z,7.00
2023-03-08T08:16:18.428Z,6.50
2023-03-08T08:18:47.552Z,7.60
2023-03-08T08:21:17.290Z,7.30
2023-03-08T08:23:47.105Z,7.80
2023-03-08T08:26:22.032Z,5.60
2023-03-08T08:28:54.606Z,5.10
2023-03-08T08:31:25.898Z,7.40
2023-03-08T08:33:54.867Z,6.00
2023-03-08T08:36:24.440Z,4.80
2023-03-08T08:38:53.272Z,7.20
2023-03-08T08:41:24.097Z,4.60
2023-03-08T08:43:52.880Z,6.40
2023-03-08T08:46:21.476Z,5.40
2023-03-08T08:48:50.656Z,4.80
2023-03-08T08:51:19.176Z,5.00
2023-03-08T08:53:48.130Z,4.90
2023-03-08T08:56:27.312Z,4.90
2023-03-08T08:58:59.793Z,5.20
2023-03-08T09:01:31.959Z,4.20
2023-03-08T09:04:01.033Z,4.80
2023-03-08T09:06:31.340Z,4.90
2023-03-08T09:09:00.526Z,5.10
2023-03-08T09:11:29.508Z,4.90
2023-03-08T09:13:58.961Z,6.30
2023-03-08T09:16:33.410Z,4.10
2023-03-08T09:19:04.320Z,10.20
2023-03-08T09:21:34.466Z,6.20
2023-03-08T09:24:06.153Z,10.10
2023-03-08T09:26:34.906Z,6.60
2023-03-08T09:29:08.021Z,5.90
2023-03-08T09:31:38.997Z,5.80
2023-03-08T09:34:11.460Z,6.30
2023-03-08T09:36:40.269Z,6.30
2023-03-08T09:39:12.264Z,6.80
2023-03-08T09:41:49.886Z,7.80
2023-03-08T09:44:57.387Z,9.30
2023-03-08T09:47:33.372Z,5.10
2023-03-08T09:50:16.740Z,6.00
2023-03-08T09:53:11.375Z,6.70
2023-03-08T09:55:47.533Z,5.70
2023-03-08T09:58:22.662Z,6.70
2023-03-08T10:00:52.498Z,8.10
2023-03-08T10:03:41.462Z,5.80
2023-03-08T10:06:23.648Z,8.50
2023-03-08T10:09:28.529Z,7.30
2023-03-08T10:12:02.275Z,10.70
2023-03-08T10:14:35.469Z,6.70
2023-03-08T10:17:10.905Z,9.50
2023-03-08T10:20:18.747Z,8.00
2023-03-08T10:22:56.425Z,7.70
2023-03-08T10:25:34.496Z,6.50
2023-03-08T10:28:13.077Z,6.80
2023-03-08T10:31:04.851Z,7.60
2023-03-08T10:33:37.040Z,10.00
2023-03-08T10:36:12.991Z,5.30
2023-03-08T10:38:41.589Z,5.40
2023-03-08T10:41:13.237Z,7.60
2023-03-08T10:43:46.969Z,5.50
2023-03-08T10:46:18.780Z,5.60
2023-03-08T10:48:48.062Z,6.00
2023-03-08T10:51:29.921Z,6.70
2023-03-08T10:54:04.564Z,5.90
2023-03-08T10:56:36.349Z,5.30
2023-03-08T10:59:07.772Z,5.70
2023-03-08T11:01:49.898Z,5.80
2023-03-08T11:04:20.944Z,6.90
2023-03-08T11:06:50.343Z,5.90
2023-03-08T11:09:30.922Z,6.80
2023-03-08T11:12:00.854Z,6.50
2023-03-08T11:14:30.511Z,6.90
2023-03-08T11:17:20.786Z,7.80
2023-03-08T11:20:16.826Z,6.70
2023-03-08T11:23:12.854Z,7.30
2023-03-08T11:25:50.535Z,7.60
2023-03-08T11:28:56.774Z,8.00
2023-03-08T11:31:47.142Z,6.20
2023-03-08T11:34:50.211Z,7.00
2023-03-08T11:37:56.129Z,6.10
2023-03-08T11:40:42.259Z,5.70
2023-03-08T11:43:20.035Z,6.50
2023-03-08T11:45:59.140Z,8.40
2023-03-08T11:49:11.761Z,6.40
2023-03-08T11:51:46.467Z,7.30
2023-03-08T11:54:24.441Z,6.80
2023-03-08T11:56:59.425Z,7.20
2023-03-08T11:59:39.641Z,8.90
2023-03-08T12:02:30.120Z,7.00
2023-03-08T12:05:34.547Z,7.60
2023-03-08T12:08:12.870Z,6.70
2023-03-08T12:10:55.095Z,6.40
2023-03-08T12:13:28.825Z,6.10
2023-03-08T12:16:10.278Z,8.10
2023-03-08T12:18:51.853Z,6.90
2023-03-08T12:22:09.122Z,11.00
2023-03-08T12:24:51.762Z,4.90
2023-03-08T12:27:38.404Z,14.70
2023-03-08T12:30:31.499Z,12.60
2023-03-08T12:33:04.730Z,5.30
2023-03-08T12:35:36.213Z,7.30
2023-03-08T12:38:26.797Z,6.80
2023-03-08T12:40:56.863Z,6.60
2023-03-08T12:43:26.008Z,7.50
2023-03-08T12:46:01.440Z,8.10
2023-03-08T12:48:44.904Z,7.00
2023-03-08T12:51:17.074Z,9.70
2023-03-08T12:53:49.389Z,7.30
2023-03-08T12:56:31.601Z,9.50
2023-03-08T12:59:15.595Z,8.90
2023-03-08T13:01:57.870Z,7.60
2023-03-08T13:04:42.141Z,8.20
2023-03-08T13:07:20.702Z,8.00
2023-03-08T13:10:17.676Z,9.60
2023-03-08T13:13:30.862Z,10.30
2023-03-08T13:16:23.048Z,11.90
2023-03-08T13:19:02.787Z,7.30
2023-03-08T13:21:38.870Z,11.20
2023-03-08T13:24:20.974Z,8.60
2023-03-08T13:26:58.617Z,8.70
2023-03-08T13:29:37.065Z,9.30
2023-03-08T13:32:14.097Z,11.00
2023-03-08T13:34:46.765Z,6.90
2023-03-08T13:37:26.333Z,8.50
2023-03-08T13:39:58.202Z,10.70
2023-03-08T13:42:29.299Z,9.10
2023-03-08T13:45:17.792Z,7.60
2023-03-08T13:47:47.605Z,11.10
2023-03-08T13:50:52.301Z,7.50
2023-03-08T13:53:33.281Z,8.10
2023-03-08T13:56:04.989Z,10.90
2023-03-08T13:58:46.217Z,7.60
2023-03-08T14:01:20.241Z,6.90
2023-03-08T14:03:50.557Z,7.70
2023-03-08T14:06:34.043Z,7.30
2023-03-08T14:09:04.064Z,6.40
2023-03-08T14:11:36.865Z,7.90
2023-03-08T14:14:14.333Z,6.40
2023-03-08T14:16:43.545Z,7.90
2023-03-08T14:19:27.328Z,5.70
2023-03-08T14:22:02.736Z,7.80
2023-03-08T14:24:35.189Z,8.10
2023-03-08T14:27:26.059Z,7.70
2023-03-08T14:30:04.106Z,7.60
2023-03-08T14:32:33.209Z,7.20
2023-03-08T14:35:17.511Z,6.40
2023-03-08T14:37:47.777Z,9.30
2023-03-08T14:40:35.882Z,9.00
2023-03-08T14:43:17.516Z,7.10
2023-03-08T14:45:56.798Z,8.20
2023-03-08T14:48:30.250Z,8.80
2023-03-08T14:51:01.916Z,8.10
2023-03-08T14:53:36.634Z,7.00
2023-03-08T14:56:17.241Z,8.00
2023-03-08T14:58:49.463Z,7.80
2023-03-08T15:01:26.944Z,12.30
2023-03-08T15:03:55.715Z,8.80
2023-03-08T15:06:31.131Z,8.70
2023-03-08T15:09:01.441Z,8.20
2023-03-08T15:11:31.908Z,9.00
2023-03-08T15:14:01.370Z,10.10
2023-03-08T15:16:30.128Z,7.10
2023-03-08T15:18:59.070Z,9.00
2023-03-08T15:21:29.406Z,10.40
2023-03-08T15:23:58.895Z,8.80
2023-03-08T15:26:31.875Z,7.50
2023-03-08T15:29:03.711Z,10.00
2023-03-08T15:31:32.813Z,9.20
2023-03-08T15:34:01.881Z,9.00
2023-03-08T15:36:34.983Z,10.00
2023-03-08T15:39:04.907Z,10.30
2023-03-08T15:41:33.635Z,10.90
2023-03-08T15:44:02.262Z,8.80
2023-03-08T15:46:31.285Z,10.00
2023-03-08T15:49:00.278Z,9.20
2023-03-08T15:51:32.652Z,8.80
2023-03-08T15:54:02.085Z,9.70
2023-03-08T15:56:31.488Z,10.60
2023-03-08T15:59:00.448Z,17.00
2023-03-08T16:01:29.811Z,9.90
2023-03-08T16:03:59.049Z,14.00
2023-03-08T16:06:28.615Z,15.30
2023-03-08T16:08:58.140Z,18.00
2023-03-08T16:11:27.807Z,21.90
2023-03-08T16:13:57.080Z,16.40
2023-03-08T16:16:38.659Z,13.50
2023-03-08T16:19:13.569Z,13.00
2023-03-08T16:21:42.889Z,12.90
2023-03-08T16:24:12.138Z,11.40
2023-03-08T16:26:40.894Z,11.30
2023-03-08T16:29:10.099Z,32.50
2023-03-08T16:31:39.328Z,18.80
2023-03-08T16:34:08.037Z,17.00
2023-03-08T16:36:37.340Z,31.80
2023-03-08T16:39:07.522Z,28.70
2023-03-08T16:41:38.577Z,15.30
2023-03-08T16:44:16.793Z,14.00
2023-03-08T16:46:45.901Z,14.30
2023-03-08T16:49:17.212Z,13.60
2023-03-08T16:51:47.035Z,13.30
2023-03-08T16:54:16.307Z,12.70
2023-03-08T16:56:44.954Z,12.70
2023-03-08T16:59:15.785Z,12.40
2023-03-08T17:01:45.158Z,14.40
2023-03-08T17:04:14.983Z,32.00
2023-03-08T17:06:45.171Z,24.60
2023-03-08T17:09:14.271Z,38.60
2023-03-08T17:11:43.943Z,49.50
2023-03-08T17:14:14.762Z,37.00
2023-03-08T17:16:44.700Z,18.20
2023-03-08T17:19:13.744Z,18.70
2023-03-08T17:21:42.378Z,16.80
2023-03-08T17:24:14.952Z,20.80
2023-03-08T17:26:47.436Z,27.50
2023-03-08T17:29:18.159Z,33.50
2023-03-08T17:31:47.010Z,35.60
2023-03-08T17:34:17.298Z,51.50
2023-03-08T17:36:47.432Z,57.10
2023-03-08T17:39:16.719Z,44.60
2023-03-08T17:41:45.899Z,43.30
2023-03-08T17:44:16.213Z,41.10
2023-03-08T17:46:45.428Z,28.80
2023-03-08T17:49:17.052Z,28.90
2023-03-08T17:51:46.549Z,33.40
2023-03-08T17:54:18.463Z,21.50
2023-03-08T17:56:49.797Z,17.40
2023-03-08T17:59:20.229Z,20.90
2023-03-08T18:01:48.943Z,19.20
2023-03-08T18:04:19.390Z,24.40
2023-03-08T18:06:48.221Z,39.40
2023-03-08T18:09:17.308Z,28.60
2023-03-08T18:11:49.113Z,20.90
2023-03-08T18:14:19.057Z,19.30
2023-03-08T18:16:49.739Z,13.30
2023-03-08T18:19:19.881Z,21.50
2023-03-08T18:21:55.079Z,69.70
2023-03-08T18:24:27.586Z,49.90
2023-03-08T18:26:59.139Z,71.20
2023-03-08T18:32:01.898Z,37.20
2023-03-08T18:34:33.065Z,37.90
2023-03-08T18:37:02.797Z,33.80
2023-03-08T18:39:32.537Z,24.90
2023-03-08T18:42:02.900Z,23.50
2023-03-08T18:44:33.255Z,18.30
2023-03-08T18:47:05.197Z,19.70
2023-03-08T18:49:35.494Z,17.10
2023-03-08T18:52:06.845Z,16.70
2023-03-08T18:54:42.973Z,22.50
2023-03-08T18:57:13.255Z,24.90
2023-03-08T18:59:43.847Z,49.40
2023-03-08T19:02:14.374Z,53.40
2023-03-08T19:04:43.902Z,32.20
2023-03-08T19:07:21.200Z,26.80
2023-03-08T19:09:54.650Z,29.20
2023-03-08T19:12:24.927Z,36.30
2023-03-08T19:14:55.267Z,33.00
2023-03-08T19:17:26.895Z,32.30
2023-03-08T19:19:58.035Z,22.70
2023-03-08T19:22:28.650Z,26.80
2023-03-08T19:24:58.928Z,21.80
2023-03-08T19:27:30.073Z,23.70
2023-03-08T19:30:02.397Z,24.30
2023-03-08T19:32:33.523Z,22.60
2023-03-08T19:35:10.137Z,25.90
2023-03-08T19:37:42.353Z,26.80
2023-03-08T19:40:14.699Z,28.30
2023-03-08T19:42:45.886Z,24.40
2023-03-08T19:45:16.445Z,28.60
2023-03-08T19:47:47.044Z,28.90
2023-03-08T19:50:20.622Z,22.40
2023-03-08T19:52:51.304Z,27.90
2023-03-08T19:55:25.460Z,23.00
2023-03-08T19:58:02.352Z,24.90
2023-03-08T20:00:35.785Z,27.60
2023-03-08T20:03:21.311Z,25.50
2023-03-08T20:05:56.161Z,26.80
2023-03-08T20:08:28.977Z,25.60
2023-03-08T20:11:04.424Z,24.80
2023-03-08T20:13:34.809Z,23.40
2023-03-08T20:16:09.750Z,20.10
2023-03-08T20:18:42.198Z,21.90
2023-03-08T20:21:17.429Z,27.90
2023-03-08T20:23:52.690Z,25.50
2023-03-08T20:26:28.164Z,23.30
2023-03-08T20:29:00.033Z,29.90
2023-03-08T20:31:41.860Z,27.20
2023-03-08T20:34:13.006Z,27.30
2023-03-08T20:36:45.965Z,24.40
2023-03-08T20:39:19.645Z,26.20
2023-03-08T20:41:52.622Z,26.50
2023-03-08T20:44:23.561Z,26.90
2023-03-08T20:46:54.641Z,26.40
2023-03-08T20:49:27.407Z,27.40
2023-03-08T20:51:57.131Z,28.50
2023-03-08T20:54:30.544Z,27.80
2023-03-08T20:57:03.636Z,29.90
2023-03-08T20:59:37.042Z,28.50
2023-03-08T21:02:13.660Z,29.50
2023-03-08T21:04:46.680Z,30.60
2023-03-08T21:07:20.572Z,29.40
2023-03-08T21:09:51.291Z,32.00
2023-03-08T21:12:30.896Z,31.30
2023-03-08T21:15:05.420Z,28.70
2023-03-08T21:17:39.022Z,26.90
2023-03-08T21:20:12.381Z,28.30
2023-03-08T21:22:45.361Z,35.60
2023-03-08T21:25:17.213Z,30.10
2023-03-08T21:27:48.419Z,32.20
2023-03-08T21:30:18.979Z,28.10
2023-03-08T21:32:57.577Z,29.60
2023-03-08T21:35:27.708Z,28.80
2023-03-08T21:37:59.833Z,30.30
2023-03-08T21:40:29.456Z,29.80
2023-03-08T21:42:58.909Z,28.10
2023-03-08T21:45:33.658Z,27.80
2023-03-08T21:48:05.247Z,26.10
2023-03-08T21:50:34.440Z,26.30
2023-03-08T21:53:05.197Z,25.30
2023-03-08T21:55:34.994Z,26.90
2023-03-08T21:58:04.542Z,28.90
2023-03-08T22:00:33.736Z,22.40
2023-03-08T22:03:02.454Z,26.40
2023-03-08T22:05:31.781Z,24.70
2023-03-08T22:08:00.493Z,29.20
2023-03-08T22:10:29.701Z,27.10
2023-03-08T22:12:58.922Z,29.40
2023-03-08T22:15:27.806Z,29.20
2023-03-08T22:17:56.431Z,29.30
2023-03-08T22:20:25.631Z,37.60
2023-03-08T22:22:54.829Z,31.50
2023-03-08T22:25:24.103Z,30.60
2023-03-08T22:27:53.805Z,34.50
2023-03-08T22:30:23.116Z,29.90
2023-03-08T22:32:59.040Z,35.20
2023-03-08T22:35:28.489Z,32.80
2023-03-08T22:37:57.167Z,32.10
2023-03-08T22:40:25.799Z,35.50
2023-03-08T22:42:55.039Z,38.00
2023-03-08T22:45:23.677Z,32.70
2023-03-08T22:47:52.622Z,33.20
2023-03-08T22:50:21.947Z,32.10
2023-03-08T22:52:50.816Z,31.90
2023-03-08T22:55:19.530Z,31.00
2023-03-08T22:57:48.253Z,32.30
2023-03-08T23:00:18.345Z,28.50
2023-03-08T23:02:48.612Z,33.00
2023-03-08T23:05:20.775Z,33.20
2023-03-08T23:07:49.484Z,35.90
2023-03-08T23:10:18.227Z,34.70
2023-03-08T23:12:47.137Z,31.90
2023-03-08T23:15:16.314Z,30.40
2023-03-08T23:17:44.926Z,29.40
2023-03-08T23:20:14.415Z,29.10
2023-03-08T23:22:44.996Z,32.00
2023-03-08T23:25:14.096Z,60.50
2023-03-08T23:27:44.108Z,32.60
2023-03-08T23:30:15.871Z,29.00
2023-03-08T23:32:45.224Z,30.10
2023-03-08T23:35:14.645Z,30.80
2023-03-08T23:37:44.055Z,33.40
2023-03-08T23:40:14.585Z,29.70
2023-03-08T23:42:44.226Z,30.60
2023-03-08T23:45:13.378Z,32.30
2023-03-08T23:47:42.115Z,32.60
2023-03-08T23:50:11.785Z,29.80
2023-03-08T23:52:40.455Z,30.40
2023-03-08T23:55:09.698Z,26.20
2023-03-08T23:57:38.878Z,30.50
